createdAt,value
2022-10-20T00:04:16.301Z,77.62
2022-10-20T00:09:20.182Z,77.62
2022-10-20T00:14:21.486Z,76.35
2022-10-20T00:19:22.705Z,76.51
2022-10-20T00:24:24.136Z,76.35
2022-10-20T00:29:25.456Z,76.94
2022-10-20T00:34:26.834Z,76.23
2022-10-20T00:39:28.141Z,76.16
2022-10-20T00:44:56.095Z,77.94
2022-10-20T00:50:07.718Z,75.90
2022-10-20T00:55:10.723Z,75.50
2022-10-20T01:00:12.737Z,76.23
2022-10-20T01:05:14.058Z,75.61
2022-10-20T01:10:15.972Z,76.00
2022-10-20T01:15:28.958Z,75.91
2022-10-20T01:21:07.914Z,75.73
2022-10-20T01:26:39.815Z,75.49
2022-10-20T01:31:48.051Z,75.84
2022-10-20T01:36:57.114Z,74.79
2022-10-20T01:42:09.273Z,74.67
2022-10-20T01:47:13.540Z,74.38
2022-10-20T01:52:15.093Z,74.24
2022-10-20T01:57:18.996Z,75.92
2022-10-20T02:02:38.116Z,73.85
2022-10-20T02:07:42.742Z,74.25
2022-10-20T02:12:49.297Z,73.86
2022-10-20T02:17:57.294Z,73.68
2022-10-20T02:23:00.445Z,73.82
2022-10-20T02:28:04.192Z,73.82
2022-10-20T02:33:07.058Z,74.24
2022-10-20T02:38:08.314Z,73.98
2022-10-20T02:43:09.547Z,73.91
2022-10-20T02:48:10.785Z,73.57
2022-10-20T02:53:12.066Z,73.59
2022-10-20T02:58:13.362Z,73.63
2022-10-20T03:03:14.586Z,74.24
2022-10-20T03:08:16.071Z,73.35
2022-10-20T03:13:17.375Z,74.07
2022-10-20T03:18:18.647Z,74.36
2022-10-20T03:23:20.714Z,74.02
2022-10-20T03:28:21.959Z,73.81
2022-10-20T03:33:23.399Z,73.43
2022-10-20T03:38:24.688Z,73.78
2022-10-20T03:43:26.017Z,73.94
2022-10-20T03:48:27.272Z,73.50
2022-10-20T03:53:29.602Z,74.54
2022-10-20T03:58:30.842Z,76.35
2022-10-20T04:03:32.461Z,73.35
2022-10-20T04:08:33.824Z,73.68
2022-10-20T04:13:35.173Z,75.51
2022-10-20T04:18:36.504Z,73.50
2022-10-20T04:23:37.738Z,73.92
2022-10-20T04:28:39.050Z,73.44
2022-10-20T04:33:40.289Z,73.27
2022-10-20T04:38:41.527Z,73.48
2022-10-20T04:43:42.835Z,73.53
2022-10-20T04:48:44.486Z,73.35
2022-10-20T04:53:46.501Z,73.74
2022-10-20T04:58:52.954Z,73.64
2022-10-20T05:03:54.830Z,74.77
2022-10-20T05:08:59.282Z,73.24
2022-10-20T05:14:00.592Z,73.39
2022-10-20T05:19:01.843Z,74.06
2022-10-20T05:24:04.968Z,73.88
2022-10-20T05:29:08.019Z,74.30
2022-10-20T05:34:11.141Z,74.95
2022-10-20T05:39:12.595Z,74.55
2022-10-20T05:44:13.946Z,74.91
2022-10-20T05:49:17.340Z,75.78
2022-10-20T05:54:18.904Z,74.55
2022-10-20T05:59:20.222Z,75.02
2022-10-20T06:04:23.756Z,74.74
2022-10-20T06:09:25.236Z,75.24
2022-10-20T06:14:26.673Z,75.21
2022-10-20T06:19:27.964Z,75.18
2022-10-20T06:24:29.378Z,75.63
2022-10-20T06:29:30.639Z,74.83
2022-10-20T06:34:31.893Z,74.80
2022-10-20T06:39:33.166Z,74.23
2022-10-20T06:44:34.537Z,73.52
2022-10-20T06:49:35.973Z,74.78
2022-10-20T06:54:37.252Z,73.80
2022-10-20T06:59:38.685Z,73.69
2022-10-20T07:04:39.989Z,73.88
2022-10-20T07:09:41.233Z,74.00
2022-10-20T07:14:42.537Z,73.56
2022-10-20T07:19:43.822Z,73.60
2022-10-20T07:24:45.079Z,73.86
2022-10-20T07:29:46.356Z,72.68
2022-10-20T07:34:47.684Z,72.73
2022-10-20T07:39:49.090Z,71.92
2022-10-20T07:44:50.331Z,71.74
2022-10-20T07:49:51.589Z,71.06
2022-10-20T07:55:01.520Z,70.03
2022-10-20T08:00:14.663Z,69.58
2022-10-20T08:05:16.055Z,70.42
2022-10-20T08:10:17.500Z,69.43
2022-10-20T08:15:18.853Z,70.22
2022-10-20T08:20:22.398Z,70.64
2022-10-20T08:25:26.541Z,71.08
2022-10-20T08:30:27.889Z,71.33
2022-10-20T08:35:29.167Z,71.43
2022-10-20T08:40:30.969Z,72.56
2022-10-20T08:45:38.151Z,72.34
2022-10-20T08:50:45.352Z,72.18
2022-10-20T08:55:46.995Z,71.42
2022-10-20T09:00:55.226Z,70.66
2022-10-20T09:06:07.630Z,69.92
2022-10-20T09:11:14.235Z,71.11
2022-10-20T09:16:23.225Z,71.21
2022-10-20T09:21:38.608Z,70.56
2022-10-20T09:27:04.235Z,70.33
2022-10-20T09:32:50.917Z,70.65
2022-10-20T09:38:29.498Z,70.49
2022-10-20T09:43:31.620Z,68.69
2022-10-20T09:48:36.540Z,67.97
2022-10-20T09:53:55.272Z,67.93
2022-10-20T09:58:58.995Z,69.64
2022-10-20T10:04:02.093Z,70.40
2022-10-20T10:14:33.438Z,70.09
2022-10-20T10:19:34.914Z,69.96
2022-10-20T10:24:43.681Z,70.68
2022-10-20T10:29:45.081Z,72.08
2022-10-20T10:35:09.361Z,72.48
2022-10-20T10:40:24.191Z,72.40
2022-10-20T10:45:51.459Z,72.63
2022-10-20T10:51:10.719Z,72.75
2022-10-20T10:56:30.798Z,73.15
2022-10-20T11:02:15.251Z,73.27
2022-10-20T11:07:41.391Z,73.78
2022-10-20T11:13:24.405Z,73.34
2022-10-20T11:18:47.165Z,72.16
2022-10-20T11:24:19.202Z,70.63
2022-10-20T11:29:33.235Z,68.70
2022-10-20T11:34:47.050Z,62.06
2022-10-20T11:39:58.618Z,62.15
2022-10-20T11:45:01.664Z,65.21
2022-10-20T11:50:10.550Z,67.39
2022-10-20T11:55:20.811Z,68.75
2022-10-20T12:00:37.408Z,69.56
2022-10-20T12:06:09.953Z,70.24
2022-10-20T12:11:46.386Z,70.72
2022-10-20T12:16:59.817Z,71.35
2022-10-20T12:22:13.264Z,71.76
2022-10-20T12:27:22.449Z,72.46
2022-10-20T12:32:45.534Z,72.96
2022-10-20T12:37:58.809Z,72.60
2022-10-20T12:43:00.512Z,73.29
2022-10-20T12:48:03.240Z,73.38
2022-10-20T12:53:18.533Z,73.58
2022-10-20T12:58:19.792Z,73.77
2022-10-20T13:03:40.014Z,74.28
2022-10-20T13:08:41.275Z,73.80
2022-10-20T13:14:03.065Z,74.45
2022-10-20T13:19:13.906Z,74.04
2022-10-20T13:24:35.367Z,74.11
2022-10-20T13:29:43.169Z,74.96
2022-10-20T13:34:51.861Z,75.32
2022-10-20T13:40:22.668Z,74.80
2022-10-20T13:45:49.967Z,75.36
2022-10-20T13:51:03.478Z,75.82
2022-10-20T13:56:08.410Z,76.45
2022-10-20T14:01:12.442Z,76.65
2022-10-20T14:06:29.695Z,77.10
2022-10-20T14:11:32.054Z,77.42
2022-10-20T14:16:33.511Z,77.90
2022-10-20T14:21:45.051Z,78.16
2022-10-20T14:26:46.721Z,78.67
2022-10-20T14:31:48.891Z,80.00
2022-10-20T14:36:52.747Z,80.24
2022-10-20T14:41:57.181Z,81.89
2022-10-20T14:47:05.188Z,82.02
2022-10-20T14:52:22.258Z,83.32
2022-10-20T14:57:44.137Z,84.10
2022-10-20T15:02:45.920Z,84.93
2022-10-20T15:07:47.430Z,85.34
2022-10-20T15:12:52.004Z,85.61
2022-10-20T15:18:18.090Z,86.90
2022-10-20T15:23:25.206Z,86.73
2022-10-20T15:28:47.306Z,88.19
2022-10-20T15:33:48.911Z,88.08
2022-10-20T15:38:50.930Z,88.74
2022-10-20T15:43:52.868Z,89.33
2022-10-20T15:48:54.372Z,89.70
2022-10-20T15:53:56.555Z,89.89
2022-10-20T15:58:57.894Z,90.54
2022-10-20T16:04:02.150Z,90.92
2022-10-20T16:09:04.832Z,91.39
2022-10-20T16:14:06.284Z,91.73
2022-10-20T16:19:08.255Z,91.40
2022-10-20T16:24:11.017Z,91.88
2022-10-20T16:29:12.298Z,92.09
2022-10-20T16:34:13.546Z,92.24
2022-10-20T16:39:17.100Z,93.04
2022-10-20T16:44:18.346Z,93.34
2022-10-20T16:49:19.625Z,93.16
2022-10-20T16:54:21.022Z,93.38
2022-10-20T16:59:22.346Z,93.64
2022-10-20T17:04:23.936Z,94.40
2022-10-20T17:09:25.399Z,94.75
2022-10-20T17:14:26.675Z,95.33
2022-10-20T17:19:27.953Z,95.30
2022-10-20T17:24:29.241Z,95.18
2022-10-20T17:29:30.494Z,94.72
2022-10-20T17:34:31.864Z,94.47
2022-10-20T17:39:33.145Z,94.91
2022-10-20T17:44:34.426Z,95.37
2022-10-20T17:49:35.682Z,95.83
2022-10-20T17:54:37.370Z,95.73
2022-10-20T17:59:52.103Z,95.84
2022-10-20T18:04:54.697Z,96.25
2022-10-20T18:09:56.023Z,96.72
2022-10-20T18:14:57.528Z,96.99
2022-10-20T18:19:59.924Z,97.92
2022-10-20T18:25:01.284Z,99.39
2022-10-20T18:30:02.763Z,98.53
2022-10-20T18:35:04.236Z,97.60
2022-10-20T18:40:06.222Z,97.19
2022-10-20T18:45:07.583Z,97.33
2022-10-20T18:50:09.198Z,97.13
2022-10-20T18:55:10.698Z,97.75
2022-10-20T19:00:12.555Z,97.06
2022-10-20T19:05:13.814Z,96.31
2022-10-20T19:10:15.141Z,96.78
2022-10-20T19:15:17.031Z,96.93
2022-10-20T19:20:18.318Z,97.43
2022-10-20T19:25:19.828Z,97.75
2022-10-20T19:30:21.238Z,97.73
2022-10-20T19:35:22.496Z,97.92
2022-10-20T19:40:27.540Z,98.07
2022-10-20T19:45:29.795Z,97.85
2022-10-20T19:50:34.382Z,97.94
2022-10-20T19:55:36.733Z,97.87
2022-10-20T20:00:43.437Z,97.70
2022-10-20T20:05:48.194Z,98.22
2022-10-20T20:10:55.126Z,98.35
2022-10-20T20:15:56.794Z,98.27
2022-10-20T20:21:02.283Z,98.85
2022-10-20T20:26:04.931Z,99.00
2022-10-20T20:31:08.384Z,99.54
2022-10-20T20:36:10.043Z,100.00
2022-10-20T20:41:14.927Z,100.00
2022-10-20T20:46:18.589Z,100.00
2022-10-20T20:51:20.421Z,100.00
2022-10-20T20:56:23.180Z,100.00
2022-10-20T21:01:30.999Z,100.00
2022-10-20T21:06:49.438Z,100.00
2022-10-20T21:11:53.609Z,100.00
2022-10-20T21:16:55.007Z,100.00
2022-10-20T21:22:01.130Z,99.64
2022-10-20T21:27:02.390Z,99.50
2022-10-20T21:32:03.716Z,99.84
2022-10-20T21:37:04.947Z,100.00
2022-10-20T21:42:06.195Z,99.72
2022-10-20T21:47:07.446Z,99.98
2022-10-20T21:52:08.841Z,99.31
2022-10-20T21:57:10.130Z,99.71
2022-10-20T22:02:14.034Z,99.18
2022-10-20T22:07:15.299Z,99.78
2022-10-20T22:12:16.537Z,99.96
2022-10-20T22:17:17.857Z,100.00
2022-10-20T22:22:19.088Z,100.00
2022-10-20T22:27:31.652Z,100.00
2022-10-20T22:32:41.672Z,99.99
2022-10-20T22:37:42.930Z,99.81
2022-10-20T22:42:44.190Z,99.50
2022-10-20T22:47:45.462Z,99.44
2022-10-20T22:52:46.680Z,99.43
2022-10-20T22:57:49.500Z,99.00
2022-10-20T23:02:50.754Z,99.46
2022-10-20T23:07:52.017Z,99.03
2022-10-20T23:12:53.309Z,98.79
2022-10-20T23:17:54.573Z,99.11
2022-10-20T23:22:55.805Z,100.00
2022-10-20T23:27:57.075Z,100.00
2022-10-20T23:32:58.339Z,100.00
2022-10-20T23:37:59.561Z,100.00
2022-10-20T23:43:00.881Z,99.95
2022-10-20T23:48:02.167Z,100.00
2022-10-20T23:53:03.424Z,100.00
2022-10-20T23:58:05.046Z,100.00
